sensor_id;sensor_type;location;lat;lon;timestamp;P1;durP1;ratioP1;P2;durP2;ratioP2
30169;SDS011;46426;51.368;5.254;2023-10-13T00:00:10;6.95;;;5.03;;
30169;SDS011;46426;51.368;5.254;2023-10-13T00:00:57;7.28;;;5.47;;
30169;SDS011;46426;51.368;5.254;2023-10-13T00:01:30;10.48;;;6.00;;
30169;SDS011;46426;51.368;5.254;2023-10-13T00:02:03;7.78;;;5.05;;
30169;SDS011;46426;51.368;5.254;2023-10-13T00:02:37;9.35;;;5.28;;
30169;SDS011;46426;51.368;5.254;2023-10-13T00:03:11;6.90;;;5.03;;
30169;SDS011;46426;51.368;5.254;2023-10-13T00:03:50;7.95;;;5.03;;
30169;SDS011;46426;51.368;5.254;2023-10-13T00:04:26;6.90;;;4.93;;
30169;SDS011;46426;51.368;5.254;2023-10-13T00:04:58;10.43;;;5.40;;
30169;SDS011;46426;51.368;5.254;2023-10-13T00:05:32;8.20;;;4.90;;
30169;SDS011;46426;51.368;5.254;2023-10-13T00:06:04;7.72;;;4.97;;
30169;SDS011;46426;51.368;5.254;2023-10-13T00:06:38;7.30;;;4.97;;
30169;SDS011;46426;51.368;5.254;2023-10-13T00:07:10;6.18;;;4.68;;
30169;SDS011;46426;51.368;5.254;2023-10-13T00:07:43;7.45;;;5.10;;
30169;SDS011;46426;51.368;5.254;2023-10-13T00:08:15;9.15;;;5.00;;
30169;SDS011;46426;51.368;5.254;2023-10-13T00:08:49;7.03;;;5.25;;
30169;SDS011;46426;51.368;5.254;2023-10-13T00:09:22;8.45;;;5.05;;
30169;SDS011;46426;51.368;5.254;2023-10-13T00:09:57;6.60;;;4.72;;
30169;SDS011;46426;51.368;5.254;2023-10-13T00:10:31;6.30;;;4.70;;
30169;SDS011;46426;51.368;5.254;2023-10-13T00:11:05;9.30;;;5.20;;
30169;SDS011;46426;51.368;5.254;2023-10-13T00:11:40;8.82;;;5.25;;
30169;SDS011;46426;51.368;5.254;2023-10-13T00:12:12;9.13;;;4.88;;
30169;SDS011;46426;51.368;5.254;2023-10-13T00:12:46;7.90;;;4.68;;
30169;SDS011;46426;51.368;5.254;2023-10-13T00:13:37;6.28;;;4.57;;
30169;SDS011;46426;51.368;5.254;2023-10-13T00:14:21;7.53;;;4.40;;
30169;SDS011;46426;51.368;5.254;2023-10-13T00:14:54;7.85;;;5.20;;
30169;SDS011;46426;51.368;5.254;2023-10-13T00:15:26;7.55;;;5.03;;
30169;SDS011;46426;51.368;5.254;2023-10-13T00:15:59;8.57;;;4.90;;
30169;SDS011;46426;51.368;5.254;2023-10-13T00:16:32;8.18;;;5.45;;
30169;SDS011;46426;51.368;5.254;2023-10-13T00:17:07;7.15;;;4.95;;
30169;SDS011;46426;51.368;5.254;2023-10-13T00:17:40;6.90;;;5.20;;
30169;SDS011;46426;51.368;5.254;2023-10-13T00:18:13;7.78;;;4.45;;
30169;SDS011;46426;51.368;5.254;2023-10-13T00:18:46;7.70;;;4.95;;
30169;SDS011;46426;51.368;5.254;2023-10-13T00:19:19;6.43;;;4.97;;
30169;SDS011;46426;51.368;5.254;2023-10-13T00:19:55;7.60;;;4.60;;
30169;SDS011;46426;51.368;5.254;2023-10-13T00:20:31;7.25;;;5.15;;
30169;SDS011;46426;51.368;5.254;2023-10-13T00:21:08;6.50;;;4.85;;
30169;SDS011;46426;51.368;5.254;2023-10-13T00:21:47;7.00;;;4.60;;
30169;SDS011;46426;51.368;5.254;2023-10-13T00:22:19;7.22;;;4.57;;
30169;SDS011;46426;51.368;5.254;2023-10-13T00:22:52;7.45;;;5.00;;
30169;SDS011;46426;51.368;5.254;2023-10-13T00:23:24;7.07;;;4.45;;
30169;SDS011;46426;51.368;5.254;2023-10-13T00:23:59;11.05;;;4.72;;
30169;SDS011;46426;51.368;5.254;2023-10-13T00:24:38;7.28;;;4.78;;
30169;SDS011;46426;51.368;5.254;2023-10-13T00:25:23;7.90;;;4.53;;
30169;SDS011;46426;51.368;5.254;2023-10-13T00:25:59;8.73;;;5.10;;
30169;SDS011;46426;51.368;5.254;2023-10-13T00:26:31;5.80;;;4.05;;
30169;SDS011;46426;51.368;5.254;2023-10-13T00:27:15;7.95;;;4.63;;
30169;SDS011;46426;51.368;5.254;2023-10-13T00:27:59;8.98;;;4.60;;
30169;SDS011;46426;51.368;5.254;2023-10-13T00:28:33;6.50;;;4.80;;
30169;SDS011;46426;51.368;5.254;2023-10-13T00:29:15;6.75;;;4.18;;
30169;SDS011;46426;51.368;5.254;2023-10-13T00:29:48;8.57;;;4.32;;
30169;SDS011;46426;51.368;5.254;2023-10-13T00:30:22;6.53;;;4.25;;
30169;SDS011;46426;51.368;5.254;2023-10-13T00:30:55;7.40;;;4.70;;
30169;SDS011;46426;51.368;5.254;2023-10-13T00:31:36;6.78;;;4.03;;
30169;SDS011;46426;51.368;5.254;2023-10-13T00:32:10;6.88;;;4.32;;
30169;SDS011;46426;51.368;5.254;2023-10-13T00:32:44;8.85;;;5.03;;
30169;SDS011;46426;51.368;5.254;2023-10-13T00:33:19;8.35;;;4.50;;
30169;SDS011;46426;51.368;5.254;2023-10-13T00:33:54;7.82;;;4.80;;
30169;SDS011;46426;51.368;5.254;2023-10-13T00:34:33;9.45;;;4.70;;
30169;SDS011;46426;51.368;5.254;2023-10-13T00:35:10;7.18;;;4.57;;
30169;SDS011;46426;51.368;5.254;2023-10-13T00:35:45;5.32;;;4.25;;
30169;SDS011;46426;51.368;5.254;2023-10-13T00:36:19;7.25;;;4.57;;
30169;SDS011;46426;51.368;5.254;2023-10-13T00:36:51;8.90;;;4.78;;
30169;SDS011;46426;51.368;5.254;2023-10-13T00:37:42;6.95;;;4.18;;
30169;SDS011;46426;51.368;5.254;2023-10-13T00:38:16;7.95;;;4.75;;
30169;SDS011;46426;51.368;5.254;2023-10-13T00:38:49;5.70;;;4.15;;
30169;SDS011;46426;51.368;5.254;2023-10-13T00:39:22;7.78;;;4.32;;
30169;SDS011;46426;51.368;5.254;2023-10-13T00:39:55;7.55;;;4.82;;
30169;SDS011;46426;51.368;5.254;2023-10-13T00:40:28;8.20;;;4.60;;
30169;SDS011;46426;51.368;5.254;2023-10-13T00:41:04;6.50;;;4.72;;
30169;SDS011;46426;51.368;5.254;2023-10-13T00:41:50;9.00;;;4.75;;
30169;SDS011;46426;51.368;5.254;2023-10-13T00:42:24;7.50;;;4.82;;
30169;SDS011;46426;51.368;5.254;2023-10-13T00:43:16;6.95;;;4.60;;
30169;SDS011;46426;51.368;5.254;2023-10-13T00:43:50;5.22;;;4.05;;
30169;SDS011;46426;51.368;5.254;2023-10-13T00:44:41;7.53;;;4.45;;
30169;SDS011;46426;51.368;5.254;2023-10-13T00:45:14;6.90;;;4.20;;
30169;SDS011;46426;51.368;5.254;2023-10-13T00:45:55;8.15;;;4.68;;
30169;SDS011;46426;51.368;5.254;2023-10-13T00:46:37;6.75;;;3.95;;
30169;SDS011;46426;51.368;5.254;2023-10-13T00:47:11;5.75;;;3.75;;
30169;SDS011;46426;51.368;5.254;2023-10-13T00:48:03;7.70;;;3.88;;
30169;SDS011;46426;51.368;5.254;2023-10-13T00:48:46;6.03;;;3.78;;
30169;SDS011;46426;51.368;5.254;2023-10-13T00:49:24;7.07;;;4.78;;
30169;SDS011;46426;51.368;5.254;2023-10-13T00:49:57;8.07;;;4.47;;
30169;SDS011;46426;51.368;5.254;2023-10-13T00:50:29;9.40;;;4.97;;
30169;SDS011;46426;51.368;5.254;2023-10-13T00:51:34;7.82;;;4.53;;
30169;SDS011;46426;51.368;5.254;2023-10-13T00:52:07;6.20;;;4.07;;
30169;SDS011;46426;51.368;5.254;2023-10-13T00:52:42;6.75;;;4.60;;
30169;SDS011;46426;51.368;5.254;2023-10-13T00:53:18;8.30;;;4.07;;
30169;SDS011;46426;51.368;5.254;2023-10-13T00:53:53;6.03;;;4.07;;
30169;SDS011;46426;51.368;5.254;2023-10-13T00:54:25;6.13;;;4.10;;
30169;SDS011;46426;51.368;5.254;2023-10-13T00:54:59;6.10;;;4.15;;
30169;SDS011;46426;51.368;5.254;2023-10-13T00:55:32;7.50;;;4.10;;
30169;SDS011;46426;51.368;5.254;2023-10-13T00:56:05;7.25;;;4.15;;
30169;SDS011;46426;51.368;5.254;2023-10-13T00:56:50;6.80;;;4.30;;
30169;SDS011;46426;51.368;5.254;2023-10-13T00:57:29;5.45;;;3.88;;
30169;SDS011;46426;51.368;5.254;2023-10-13T00:58:02;7.85;;;4.38;;
30169;SDS011;46426;51.368;5.254;2023-10-13T00:58:35;12.45;;;4.68;;
30169;SDS011;46426;51.368;5.254;2023-10-13T00:59:11;7.45;;;4.22;;
30169;SDS011;46426;51.368;5.254;2023-10-13T00:59:45;6.80;;;4.30;;
30169;SDS011;46426;51.368;5.254;2023-10-13T01:00:19;8.02;;;4.05;;
30169;SDS011;46426;51.368;5.254;2023-10-13T01:00:56;7.65;;;4.30;;
30169;SDS011;46426;51.368;5.254;2023-10-13T01:01:29;7.25;;;4.05;;
30169;SDS011;46426;51.368;5.254;2023-10-13T01:02:05;7.05;;;3.65;;
30169;SDS011;46426;51.368;5.254;2023-10-13T01:02:55;7.85;;;4.68;;
30169;SDS011;46426;51.368;5.254;2023-10-13T01:03:38;8.23;;;4.15;;
30169;SDS011;46426;51.368;5.254;2023-10-13T01:04:11;8.77;;;4.10;;
30169;SDS011;46426;51.368;5.254;2023-10-13T01:04:47;6.07;;;4.15;;
30169;SDS011;46426;51.368;5.254;2023-10-13T01:05:20;6.93;;;4.40;;
30169;SDS011;46426;51.368;5.254;2023-10-13T01:05:53;7.30;;;3.55;;
30169;SDS011;46426;51.368;5.254;2023-10-13T01:06:26;6.78;;;3.63;;
30169;SDS011;46426;51.368;5.254;2023-10-13T01:06:59;5.97;;;4.50;;
30169;SDS011;46426;51.368;5.254;2023-10-13T01:07:31;5.50;;;3.88;;
30169;SDS011;46426;51.368;5.254;2023-10-13T01:08:03;7.18;;;4.13;;
30169;SDS011;46426;51.368;5.254;2023-10-13T01:08:36;6.55;;;3.83;;
30169;SDS011;46426;51.368;5.254;2023-10-13T01:09:10;6.72;;;4.03;;
30169;SDS011;46426;51.368;5.254;2023-10-13T01:09:45;5.78;;;4.13;;
30169;SDS011;46426;51.368;5.254;2023-10-13T01:10:20;5.28;;;3.55;;
30169;SDS011;46426;51.368;5.254;2023-10-13T01:10:57;5.85;;;3.72;;
30169;SDS011;46426;51.368;5.254;2023-10-13T01:11:29;5.32;;;3.42;;
30169;SDS011;46426;51.368;5.254;2023-10-13T01:12:03;4.15;;;3.60;;
30169;SDS011;46426;51.368;5.254;2023-10-13T01:12:35;8.38;;;3.67;;
30169;SDS011;46426;51.368;5.254;2023-10-13T01:13:08;7.28;;;3.47;;
30169;SDS011;46426;51.368;5.254;2023-10-13T01:13:40;4.38;;;3.63;;
30169;SDS011;46426;51.368;5.254;2023-10-13T01:14:14;5.03;;;3.42;;
30169;SDS011;46426;51.368;5.254;2023-10-13T01:14:50;5.25;;;3.55;;
30169;SDS011;46426;51.368;5.254;2023-10-13T01:15:22;5.60;;;3.38;;
30169;SDS011;46426;51.368;5.254;2023-10-13T01:15:54;5.13;;;3.63;;
30169;SDS011;46426;51.368;5.254;2023-10-13T01:16:26;6.28;;;3.80;;
30169;SDS011;46426;51.368;5.254;2023-10-13T01:16:59;7.35;;;3.40;;
30169;SDS011;46426;51.368;5.254;2023-10-13T01:17:33;5.53;;;3.70;;
30169;SDS011;46426;51.368;5.254;2023-10-13T01:18:09;6.10;;;3.88;;
30169;SDS011;46426;51.368;5.254;2023-10-13T01:18:49;5.18;;;3.58;;
30169;SDS011;46426;51.368;5.254;2023-10-13T01:19:21;8.70;;;4.15;;
30169;SDS011;46426;51.368;5.254;2023-10-13T01:19:57;5.78;;;3.95;;
30169;SDS011;46426;51.368;5.254;2023-10-13T01:20:30;7.57;;;3.55;;
30169;SDS011;46426;51.368;5.254;2023-10-13T01:21:04;5.82;;;3.88;;
30169;SDS011;46426;51.368;5.254;2023-10-13T01:21:37;5.25;;;4.15;;
30169;SDS011;46426;51.368;5.254;2023-10-13T01:22:12;6.88;;;3.95;;
30169;SDS011;46426;51.368;5.254;2023-10-13T01:22:45;7.07;;;3.60;;
30169;SDS011;46426;51.368;5.254;2023-10-13T01:23:21;4.65;;;3.60;;
30169;SDS011;46426;51.368;5.254;2023-10-13T01:23:57;5.65;;;3.90;;
30169;SDS011;46426;51.368;5.254;2023-10-13T01:24:30;7.65;;;3.75;;
30169;SDS011;46426;51.368;5.254;2023-10-13T01:25:09;6.57;;;3.65;;
30169;SDS011;46426;51.368;5.254;2023-10-13T01:25:45;4.03;;;3.05;;
30169;SDS011;46426;51.368;5.254;2023-10-13T01:26:17;6.18;;;3.85;;
30169;SDS011;46426;51.368;5.254;2023-10-13T01:26:55;7.03;;;3.47;;
30169;SDS011;46426;51.368;5.254;2023-10-13T01:27:27;7.45;;;3.83;;
30169;SDS011;46426;51.368;5.254;2023-10-13T01:28:00;5.38;;;3.60;;
30169;SDS011;46426;51.368;5.254;2023-10-13T01:28:33;5.57;;;3.78;;
30169;SDS011;46426;51.368;5.254;2023-10-13T01:29:16;6.10;;;3.50;;
30169;SDS011;46426;51.368;5.254;2023-10-13T01:29:51;6.57;;;3.75;;
30169;SDS011;46426;51.368;5.254;2023-10-13T01:30:27;5.35;;;3.25;;
30169;SDS011;46426;51.368;5.254;2023-10-13T01:30:59;6.25;;;3.78;;
30169;SDS011;46426;51.368;5.254;2023-10-13T01:31:32;6.50;;;3.60;;
30169;SDS011;46426;51.368;5.254;2023-10-13T01:32:09;6.38;;;3.83;;
30169;SDS011;46426;51.368;5.254;2023-10-13T01:32:44;5.13;;;3.83;;
30169;SDS011;46426;51.368;5.254;2023-10-13T01:33:18;7.30;;;3.85;;
30169;SDS011;46426;51.368;5.254;2023-10-13T01:34:00;6.25;;;3.33;;
30169;SDS011;46426;51.368;5.254;2023-10-13T01:34:32;6.68;;;3.30;;
30169;SDS011;46426;51.368;5.254;2023-10-13T01:35:06;7.80;;;4.00;;
30169;SDS011;46426;51.368;5.254;2023-10-13T01:35:38;5.35;;;3.50;;
30169;SDS011;46426;51.368;5.254;2023-10-13T01:36:19;6.03;;;3.60;;
30169;SDS011;46426;51.368;5.254;2023-10-13T01:36:52;5.03;;;3.25;;
30169;SDS011;46426;51.368;5.254;2023-10-13T01:37:25;6.80;;;3.78;;
30169;SDS011;46426;51.368;5.254;2023-10-13T01:37:57;4.85;;;3.30;;
30169;SDS011;46426;51.368;5.254;2023-10-13T01:38:29;4.32;;;3.50;;
30169;SDS011;46426;51.368;5.254;2023-10-13T01:39:05;5.30;;;3.45;;
30169;SDS011;46426;51.368;5.254;2023-10-13T01:39:37;6.88;;;3.80;;
30169;SDS011;46426;51.368;5.254;2023-10-13T01:40:09;5.88;;;3.45;;
30169;SDS011;46426;51.368;5.254;2023-10-13T01:40:42;5.22;;;3.65;;
30169;SDS011;46426;51.368;5.254;2023-10-13T01:41:15;6.13;;;3.70;;
30169;SDS011;46426;51.368;5.254;2023-10-13T01:41:47;5.72;;;3.35;;
30169;SDS011;46426;51.368;5.254;2023-10-13T01:42:27;7.78;;;4.45;;
30169;SDS011;46426;51.368;5.254;2023-10-13T01:43:02;6.43;;;3.70;;
30169;SDS011;46426;51.368;5.254;2023-10-13T01:43:36;6.78;;;3.60;;
30169;SDS011;46426;51.368;5.254;2023-10-13T01:44:09;6.93;;;3.85;;
30169;SDS011;46426;51.368;5.254;2023-10-13T01:44:43;8.23;;;4.45;;
30169;SDS011;46426;51.368;5.254;2023-10-13T01:45:15;4.97;;;3.95;;
30169;SDS011;46426;51.368;5.254;2023-10-13T01:45:52;6.18;;;3.50;;
30169;SDS011;46426;51.368;5.254;2023-10-13T01:46:25;8.10;;;3.92;;
30169;SDS011;46426;51.368;5.254;2023-10-13T01:47:00;5.03;;;3.65;;
30169;SDS011;46426;51.368;5.254;2023-10-13T01:47:39;4.30;;;3.33;;
30169;SDS011;46426;51.368;5.254;2023-10-13T01:48:11;5.43;;;3.88;;
30169;SDS011;46426;51.368;5.254;2023-10-13T01:48:47;7.60;;;3.97;;
30169;SDS011;46426;51.368;5.254;2023-10-13T01:49:19;5.75;;;3.45;;
30169;SDS011;46426;51.368;5.254;2023-10-13T01:49:55;7.03;;;3.55;;
30169;SDS011;46426;51.368;5.254;2023-10-13T01:50:30;5.78;;;3.47;;
30169;SDS011;46426;51.368;5.254;2023-10-13T01:51:02;6.57;;;4.25;;
30169;SDS011;46426;51.368;5.254;2023-10-13T01:51:37;4.65;;;3.60;;
30169;SDS011;46426;51.368;5.254;2023-10-13T01:52:11;7.05;;;4.05;;
30169;SDS011;46426;51.368;5.254;2023-10-13T01:52:47;5.10;;;3.90;;
30169;SDS011;46426;51.368;5.254;2023-10-13T01:53:19;6.07;;;3.83;;
30169;SDS011;46426;51.368;5.254;2023-10-13T01:53:52;5.32;;;3.90;;
30169;SDS011;46426;51.368;5.254;2023-10-13T01:54:28;6.57;;;3.95;;
30169;SDS011;46426;51.368;5.254;2023-10-13T01:55:00;9.07;;;4.32;;
30169;SDS011;46426;51.368;5.254;2023-10-13T01:55:33;6.78;;;4.10;;
30169;SDS011;46426;51.368;5.254;2023-10-13T01:56:15;6.65;;;3.83;;
30169;SDS011;46426;51.368;5.254;2023-10-13T01:56:48;6.47;;;4.30;;
30169;SDS011;46426;51.368;5.254;2023-10-13T01:57:21;6.93;;;4.07;;
30169;SDS011;46426;51.368;5.254;2023-10-13T01:57:56;6.18;;;4.07;;
30169;SDS011;46426;51.368;5.254;2023-10-13T01:58:28;7.63;;;4.15;;
30169;SDS011;46426;51.368;5.254;2023-10-13T01:59:01;5.82;;;4.13;;
30169;SDS011;46426;51.368;5.254;2023-10-13T01:59:34;6.10;;;3.95;;
30169;SDS011;46426;51.368;5.254;2023-10-13T02:00:15;6.65;;;4.28;;
30169;SDS011;46426;51.368;5.254;2023-10-13T02:00:51;6.50;;;4.50;;
30169;SDS011;46426;51.368;5.254;2023-10-13T02:01:23;5.40;;;4.05;;
30169;SDS011;46426;51.368;5.254;2023-10-13T02:01:59;6.53;;;4.45;;
30169;SDS011;46426;51.368;5.254;2023-10-13T02:02:33;8.27;;;4.40;;
30169;SDS011;46426;51.368;5.254;2023-10-13T02:03:05;6.63;;;4.53;;
30169;SDS011;46426;51.368;5.254;2023-10-13T02:03:47;6.25;;;4.68;;
30169;SDS011;46426;51.368;5.254;2023-10-13T02:04:20;5.07;;;4.18;;
30169;SDS011;46426;51.368;5.254;2023-10-13T02:04:53;6.90;;;4.25;;
30169;SDS011;46426;51.368;5.254;2023-10-13T02:05:29;5.55;;;3.78;;
30169;SDS011;46426;51.368;5.254;2023-10-13T02:06:07;6.78;;;4.47;;
30169;SDS011;46426;51.368;5.254;2023-10-13T02:06:42;8.05;;;4.50;;
30169;SDS011;46426;51.368;5.254;2023-10-13T02:07:15;5.70;;;3.97;;
30169;SDS011;46426;51.368;5.254;2023-10-13T02:07:48;6.15;;;4.57;;
30169;SDS011;46426;51.368;5.254;2023-10-13T02:08:20;7.97;;;5.13;;
30169;SDS011;46426;51.368;5.254;2023-10-13T02:08:56;6.55;;;4.85;;
30169;SDS011;46426;51.368;5.254;2023-10-13T02:09:30;8.05;;;5.32;;
30169;SDS011;46426;51.368;5.254;2023-10-13T02:10:02;10.77;;;5.65;;
30169;SDS011;46426;51.368;5.254;2023-10-13T02:10:38;7.53;;;5.05;;
30169;SDS011;46426;51.368;5.254;2023-10-13T02:11:15;6.88;;;4.90;;
30169;SDS011;46426;51.368;5.254;2023-10-13T02:11:51;8.18;;;5.47;;
30169;SDS011;46426;51.368;5.254;2023-10-13T02:12:26;6.10;;;4.50;;
30169;SDS011;46426;51.368;5.254;2023-10-13T02:13:12;6.75;;;4.90;;
30169;SDS011;46426;51.368;5.254;2023-10-13T02:13:47;5.53;;;4.50;;
30169;SDS011;46426;51.368;5.254;2023-10-13T02:14:23;8.00;;;4.90;;
30169;SDS011;46426;51.368;5.254;2023-10-13T02:14:58;7.47;;;4.60;;
30169;SDS011;46426;51.368;5.254;2023-10-13T02:15:33;8.57;;;5.30;;
30169;SDS011;46426;51.368;5.254;2023-10-13T02:16:06;8.48;;;5.30;;
30169;SDS011;46426;51.368;5.254;2023-10-13T02:16:39;7.38;;;5.13;;
30169;SDS011;46426;51.368;5.254;2023-10-13T02:17:12;8.32;;;5.13;;
30169;SDS011;46426;51.368;5.254;2023-10-13T02:17:45;8.63;;;5.47;;
30169;SDS011;46426;51.368;5.254;2023-10-13T02:18:18;8.10;;;5.90;;
30169;SDS011;46426;51.368;5.254;2023-10-13T02:18:53;9.68;;;5.50;;
30169;SDS011;46426;51.368;5.254;2023-10-13T02:19:25;7.45;;;5.50;;
30169;SDS011;46426;51.368;5.254;2023-10-13T02:19:59;7.47;;;5.80;;
30169;SDS011;46426;51.368;5.254;2023-10-13T02:20:39;7.78;;;5.63;;
30169;SDS011;46426;51.368;5.254;2023-10-13T02:21:16;8.00;;;5.80;;
30169;SDS011;46426;51.368;5.254;2023-10-13T02:21:48;7.53;;;5.60;;
30169;SDS011;46426;51.368;5.254;2023-10-13T02:22:30;9.02;;;5.65;;
30169;SDS011;46426;51.368;5.254;2023-10-13T02:23:04;9.70;;;5.43;;
30169;SDS011;46426;51.368;5.254;2023-10-13T02:23:42;7.70;;;5.35;;
30169;SDS011;46426;51.368;5.254;2023-10-13T02:24:17;8.32;;;5.47;;
30169;SDS011;46426;51.368;5.254;2023-10-13T02:24:50;7.93;;;5.07;;
30169;SDS011;46426;51.368;5.254;2023-10-13T02:25:24;8.93;;;5.15;;
30169;SDS011;46426;51.368;5.254;2023-10-13T02:26:15;9.27;;;5.82;;
30169;SDS011;46426;51.368;5.254;2023-10-13T02:26:48;6.90;;;4.80;;
30169;SDS011;46426;51.368;5.254;2023-10-13T02:27:20;8.27;;;5.03;;
30169;SDS011;46426;51.368;5.254;2023-10-13T02:27:55;7.90;;;5.47;;
30169;SDS011;46426;51.368;5.254;2023-10-13T02:28:30;9.15;;;5.75;;
30169;SDS011;46426;51.368;5.254;2023-10-13T02:29:07;7.43;;;5.20;;
30169;SDS011;46426;51.368;5.254;2023-10-13T02:29:50;8.23;;;6.05;;
30169;SDS011;46426;51.368;5.254;2023-10-13T02:30:26;9.30;;;6.15;;
30169;SDS011;46426;51.368;5.254;2023-10-13T02:31:01;10.13;;;6.35;;
30169;SDS011;46426;51.368;5.254;2023-10-13T02:31:35;9.05;;;6.47;;
30169;SDS011;46426;51.368;5.254;2023-10-13T02:32:09;9.00;;;6.15;;
30169;SDS011;46426;51.368;5.254;2023-10-13T02:32:50;8.00;;;6.10;;
30169;SDS011;46426;51.368;5.254;2023-10-13T02:33:22;8.40;;;5.78;;
30169;SDS011;46426;51.368;5.254;2023-10-13T02:34:01;9.65;;;6.32;;
30169;SDS011;46426;51.368;5.254;2023-10-13T02:34:40;8.77;;;6.53;;
30169;SDS011;46426;51.368;5.254;2023-10-13T02:35:16;10.10;;;6.60;;
30169;SDS011;46426;51.368;5.254;2023-10-13T02:35:49;9.05;;;6.32;;
30169;SDS011;46426;51.368;5.254;2023-10-13T02:36:28;9.10;;;6.40;;
30169;SDS011;46426;51.368;5.254;2023-10-13T02:37:19;11.05;;;5.65;;
30169;SDS011;46426;51.368;5.254;2023-10-13T02:37:51;9.27;;;6.68;;
30169;SDS011;46426;51.368;5.254;2023-10-13T02:38:26;10.13;;;5.93;;
30169;SDS011;46426;51.368;5.254;2023-10-13T02:38:59;8.82;;;6.00;;
30169;SDS011;46426;51.368;5.254;2023-10-13T02:39:36;10.88;;;6.47;;
30169;SDS011;46426;51.368;5.254;2023-10-13T02:40:13;9.85;;;6.10;;
30169;SDS011;46426;51.368;5.254;2023-10-13T02:40:45;8.60;;;5.45;;
30169;SDS011;46426;51.368;5.254;2023-10-13T02:41:18;7.47;;;5.85;;
30169;SDS011;46426;51.368;5.254;2023-10-13T02:41:59;8.30;;;6.13;;
30169;SDS011;46426;51.368;5.254;2023-10-13T02:42:32;8.25;;;5.65;;
30169;SDS011;46426;51.368;5.254;2023-10-13T02:43:04;8.82;;;5.70;;
30169;SDS011;46426;51.368;5.254;2023-10-13T02:43:39;7.28;;;6.03;;
30169;SDS011;46426;51.368;5.254;2023-10-13T02:44:11;9.00;;;5.80;;
30169;SDS011;46426;51.368;5.254;2023-10-13T02:44:52;7.82;;;5.88;;
30169;SDS011;46426;51.368;5.254;2023-10-13T02:45:27;8.35;;;5.60;;
30169;SDS011;46426;51.368;5.254;2023-10-13T02:45:59;9.63;;;6.43;;
30169;SDS011;46426;51.368;5.254;2023-10-13T02:46:33;11.50;;;6.35;;
30169;SDS011;46426;51.368;5.254;2023-10-13T02:47:08;8.95;;;5.95;;
30169;SDS011;46426;51.368;5.254;2023-10-13T02:47:45;11.90;;;6.28;;
30169;SDS011;46426;51.368;5.254;2023-10-13T02:48:17;10.38;;;6.47;;
30169;SDS011;46426;51.368;5.254;2023-10-13T02:48:50;8.38;;;5.50;;
30169;SDS011;46426;51.368;5.254;2023-10-13T02:49:29;9.52;;;5.90;;
30169;SDS011;46426;51.368;5.254;2023-10-13T02:50:06;7.25;;;5.68;;
30169;SDS011;46426;51.368;5.254;2023-10-13T02:50:44;8.45;;;5.72;;
30169;SDS011;46426;51.368;5.254;2023-10-13T02:51:17;7.30;;;5.28;;
30169;SDS011;46426;51.368;5.254;2023-10-13T02:51:50;8.02;;;5.40;;
30169;SDS011;46426;51.368;5.254;2023-10-13T02:52:24;7.55;;;5.78;;
30169;SDS011;46426;51.368;5.254;2023-10-13T02:52:57;10.07;;;6.75;;
30169;SDS011;46426;51.368;5.254;2023-10-13T02:53:29;9.50;;;5.90;;
30169;SDS011;46426;51.368;5.254;2023-10-13T02:54:01;9.60;;;6.60;;
30169;SDS011;46426;51.368;5.254;2023-10-13T02:54:45;8.57;;;6.38;;
30169;SDS011;46426;51.368;5.254;2023-10-13T02:55:22;9.38;;;6.70;;
30169;SDS011;46426;51.368;5.254;2023-10-13T02:55:59;9.82;;;6.40;;
30169;SDS011;46426;51.368;5.254;2023-10-13T02:56:38;12.20;;;6.68;;
30169;SDS011;46426;51.368;5.254;2023-10-13T02:57:40;8.73;;;6.38;;
30169;SDS011;46426;51.368;5.254;2023-10-13T02:58:12;8.35;;;6.53;;
30169;SDS011;46426;51.368;5.254;2023-10-13T02:58:47;11.02;;;7.32;;
30169;SDS011;46426;51.368;5.254;2023-10-13T02:59:28;8.88;;;7.03;;
30169;SDS011;46426;51.368;5.254;2023-10-13T03:00:11;9.60;;;7.30;;
30169;SDS011;46426;51.368;5.254;2023-10-13T03:00:48;7.50;;;6.45;;
30169;SDS011;46426;51.368;5.254;2023-10-13T03:01:21;10.65;;;6.05;;
30169;SDS011;46426;51.368;5.254;2023-10-13T03:02:02;9.40;;;6.07;;
30169;SDS011;46426;51.368;5.254;2023-10-13T03:02:51;10.43;;;6.85;;
30169;SDS011;46426;51.368;5.254;2023-10-13T03:03:30;11.15;;;6.93;;
30169;SDS011;46426;51.368;5.254;2023-10-13T03:04:03;8.63;;;6.57;;
30169;SDS011;46426;51.368;5.254;2023-10-13T03:04:35;10.05;;;7.10;;
30169;SDS011;46426;51.368;5.254;2023-10-13T03:05:11;9.27;;;6.78;;
30169;SDS011;46426;51.368;5.254;2023-10-13T03:05:45;8.43;;;6.72;;
30169;SDS011;46426;51.368;5.254;2023-10-13T03:06:17;9.30;;;6.85;;
30169;SDS011;46426;51.368;5.254;2023-10-13T03:06:55;11.77;;;7.60;;
30169;SDS011;46426;51.368;5.254;2023-10-13T03:07:31;11.68;;;7.85;;
30169;SDS011;46426;51.368;5.254;2023-10-13T03:08:03;10.77;;;7.82;;
30169;SDS011;46426;51.368;5.254;2023-10-13T03:08:36;10.68;;;7.40;;
30169;SDS011;46426;51.368;5.254;2023-10-13T03:09:09;10.77;;;8.07;;
30169;SDS011;46426;51.368;5.254;2023-10-13T03:09:51;13.52;;;8.45;;
30169;SDS011;46426;51.368;5.254;2023-10-13T03:10:24;10.25;;;7.93;;
30169;SDS011;46426;51.368;5.254;2023-10-13T03:11:01;11.13;;;7.70;;
30169;SDS011;46426;51.368;5.254;2023-10-13T03:11:37;12.50;;;8.13;;
30169;SDS011;46426;51.368;5.254;2023-10-13T03:12:11;11.02;;;8.05;;
30169;SDS011;46426;51.368;5.254;2023-10-13T03:12:43;12.32;;;8.45;;
30169;SDS011;46426;51.368;5.254;2023-10-13T03:13:20;10.85;;;7.93;;
30169;SDS011;46426;51.368;5.254;2023-10-13T03:13:52;13.05;;;8.55;;
30169;SDS011;46426;51.368;5.254;2023-10-13T03:14:25;11.38;;;7.32;;
30169;SDS011;46426;51.368;5.254;2023-10-13T03:15:03;11.98;;;8.05;;
30169;SDS011;46426;51.368;5.254;2023-10-13T03:15:59;10.80;;;8.27;;
30169;SDS011;46426;51.368;5.254;2023-10-13T03:16:31;13.90;;;8.82;;
30169;SDS011;46426;51.368;5.254;2023-10-13T03:17:04;12.68;;;8.30;;
30169;SDS011;46426;51.368;5.254;2023-10-13T03:17:47;11.10;;;8.32;;
30169;SDS011;46426;51.368;5.254;2023-10-13T03:18:19;11.88;;;8.70;;
30169;SDS011;46426;51.368;5.254;2023-10-13T03:18:51;12.73;;;8.75;;
30169;SDS011;46426;51.368;5.254;2023-10-13T03:19:27;13.75;;;8.60;;
30169;SDS011;46426;51.368;5.254;2023-10-13T03:20:05;11.73;;;9.13;;
30169;SDS011;46426;51.368;5.254;2023-10-13T03:20:38;12.98;;;8.27;;
30169;SDS011;46426;51.368;5.254;2023-10-13T03:21:14;16.85;;;9.65;;
30169;SDS011;46426;51.368;5.254;2023-10-13T03:22:00;14.07;;;9.20;;
30169;SDS011;46426;51.368;5.254;2023-10-13T03:22:42;10.85;;;8.65;;
30169;SDS011;46426;51.368;5.254;2023-10-13T03:23:17;11.23;;;9.38;;
30169;SDS011;46426;51.368;5.254;2023-10-13T03:23:49;14.18;;;9.30;;
30169;SDS011;46426;51.368;5.254;2023-10-13T03:24:25;13.38;;;9.20;;
30169;SDS011;46426;51.368;5.254;2023-10-13T03:25:06;13.88;;;8.75;;
30169;SDS011;46426;51.368;5.254;2023-10-13T03:25:40;14.18;;;9.55;;
30169;SDS011;46426;51.368;5.254;2023-10-13T03:26:15;11.57;;;8.80;;
30169;SDS011;46426;51.368;5.254;2023-10-13T03:26:51;13.55;;;9.20;;
30169;SDS011;46426;51.368;5.254;2023-10-13T03:27:24;16.55;;;10.23;;
30169;SDS011;46426;51.368;5.254;2023-10-13T03:28:10;13.55;;;9.45;;
30169;SDS011;46426;51.368;5.254;2023-10-13T03:28:48;14.57;;;10.07;;
30169;SDS011;46426;51.368;5.254;2023-10-13T03:29:24;12.75;;;9.38;;
30169;SDS011;46426;51.368;5.254;2023-10-13T03:29:56;15.15;;;9.98;;
30169;SDS011;46426;51.368;5.254;2023-10-13T03:30:33;12.80;;;9.63;;
30169;SDS011;46426;51.368;5.254;2023-10-13T03:31:10;11.73;;;8.63;;
30169;SDS011;46426;51.368;5.254;2023-10-13T03:31:49;11.48;;;9.93;;
30169;SDS011;46426;51.368;5.254;2023-10-13T03:32:38;14.95;;;10.30;;
30169;SDS011;46426;51.368;5.254;2023-10-13T03:33:15;13.55;;;9.43;;
30169;SDS011;46426;51.368;5.254;2023-10-13T03:33:57;14.73;;;9.80;;
30169;SDS011;46426;51.368;5.254;2023-10-13T03:34:31;17.90;;;9.88;;
30169;SDS011;46426;51.368;5.254;2023-10-13T03:35:03;13.30;;;9.60;;